KILG/ILG METAR and TAF weather

Enter ICAO airport designator
Station Type Date Time Source
KILG METAR 2021/02/28 03:51 UTC NOAA

KILG 280351Z 18003KT 5SM BR CLR 04/03 A3025 RMK AO2 SLP244 T00440028 $


Station Type Date Time Source
KILG Decoded METAR 2021/02/28 03:51 UTC NOAA

WILMINGTON NEW CASTLE CO, DE, United States (KILG) 39-40N 075-36W 28M
Feb 27, 2021 - 10:51 PM EST / 2021.02.28 0351 UTC
Wind: from the S (180 degrees) at 3 MPH (3 KT):0
Visibility: 5 mile(s):0
Sky conditions: clear
Weather: mist
Temperature: 39.9 F (4.4 C)
Dew Point: 37.0 F (2.8 C)
Relative Humidity: 89%
Pressure (altimeter): 30.25 in. Hg (1024 hPa)
ob: KILG 280351Z 18003KT 5SM BR CLR 04/03 A3025 RMK AO2 SLP244 T00440028
cycle: 4

Station Type Date Time Source
KILG TAF 2021/02/27 22:51 UTC NOAA

TAF
AMD KILG 272149Z 2722/2818 29006KT P6SM FEW030
FM280300 VRB03KT P6SM BKN200
FM280900 05004KT P6SM SCT035 BKN080
FM281300 07006KT 4SM -RA BR SCT012 OVC025
FM281500 08006KT 2SM RA BR OVC004

Example: see airport list